Time;durP1;ratioP1;P1;durP2;ratioP2;P2;SDS_P1;SDS_P2;PMS_P1;PMS_P2;Temp;Humidity;BMP_temperature;BMP_pressure;BME280_temperature;BME280_humidity;BME280_pressure;Samples;Min_cycle;Max_cycle;Signal;HPM_P1;HPM_P2
2022/12/11 00:02:17;;;;;;;68.20;20.15;;;;;;;0.40;100.00;101093.91;5057363;28;20036;-88
2022/12/11 00:04:42;;;;;;;72.07;22.15;;;;;;;0.43;100.00;101086.31;5057221;28;20083;-87
2022/12/11 00:07:08;;;;;;;73.75;23.42;;;;;;;0.44;100.00;101089.78;5057183;28;20063;-87
2022/12/11 00:09:33;;;;;;;70.10;22.63;;;;;;;0.40;100.00;101086.13;5057468;28;20515;-87
2022/12/11 00:12:01;;;;;;;66.30;21.60;;;;;;;0.44;100.00;101088.09;5040735;28;20032;-87
2022/12/11 00:14:26;;;;;;;80.95;22.90;;;;;;;0.17;100.00;101053.69;5040648;28;20032;-87
2022/12/11 00:16:52;;;;;;;80.00;22.33;;;;;;;0.34;100.00;101082.28;5057540;28;20329;-88
2022/12/11 00:19:17;;;;;;;78.47;21.08;;;;;;;0.27;100.00;101080.16;5057246;28;20036;-87
2022/12/11 00:21:43;;;;;;;72.07;21.55;;;;;;;0.43;100.00;101104.50;5040206;28;20035;-88
2022/12/11 00:24:08;;;;;;;79.75;22.45;;;;;;;0.49;100.00;101104.81;5040189;28;20487;-88
2022/12/11 00:26:34;;;;;;;65.93;20.90;;;;;;;0.36;100.00;101076.38;5056736;28;20032;-87
2022/12/11 00:28:59;;;;;;;75.20;21.23;;;;;;;0.30;100.00;101056.91;5056789;28;20044;-88
2022/12/11 00:31:25;;;;;;;72.65;21.30;;;;;;;0.46;100.00;101090.75;5056936;28;20036;-87
2022/12/11 00:33:50;;;;;;;78.47;24.33;;;;;;;0.39;100.00;101091.25;5074623;28;20024;-87
2022/12/11 00:36:19;;;;;;;68.93;20.58;;;;;;;0.44;100.00;101089.78;5073925;28;20028;-87
2022/12/11 00:38:44;;;;;;;78.00;23.80;;;;;;;0.31;100.00;101069.13;5056367;28;20028;-87
2022/12/11 00:41:10;;;;;;;69.90;21.65;;;;;;;0.55;100.00;101112.06;5056324;28;20033;-87
2022/12/11 00:43:35;;;;;;;64.60;21.33;;;;;;;0.41;100.00;101082.69;5074217;28;20097;-87
2022/12/11 00:46:04;;;;;;;67.72;20.63;;;;;;;0.36;100.00;101068.56;5075093;28;20468;-87
2022/12/11 00:48:30;;;;;;;63.63;21.70;;;;;;;0.51;100.00;101094.50;5040678;28;20028;-87
2022/12/11 00:50:56;;;;;;;66.03;20.85;;;;;;;0.36;100.00;101078.97;5057196;28;20609;-87
2022/12/11 00:53:21;;;;;;;71.78;21.27;;;;;;;0.33;100.00;101065.78;5040518;28;20033;-87
2022/12/11 00:55:47;;;;;;;75.07;22.55;;;;;;;0.44;100.00;101087.19;5057059;28;20033;-87
2022/12/11 00:58:12;;;;;;;71.97;21.77;;;;;;;0.58;100.00;101104.44;5074736;28;20488;-88
2022/12/11 01:00:39;;;;;;;71.97;22.02;;;;;;;0.42;100.00;101075.78;5056396;28;20032;-87
2022/12/11 01:03:08;;;;;;;73.15;23.25;;;;;;;0.43;100.00;101075.00;5056160;28;20177;-87
2022/12/11 01:05:33;;;;;;;81.13;23.77;;;;;;;0.44;100.00;101072.47;5061065;28;20096;-87
2022/12/11 01:07:59;;;;;;;69.28;21.75;;;;;;;0.60;100.00;101101.91;5074984;28;20124;-87
2022/12/11 01:10:25;;;;;;;69.40;21.17;;;;;;;0.56;100.00;101087.88;5039619;28;20032;-87
2022/12/11 01:13:01;;;;;;;59.72;21.05;;;;;;;0.42;100.00;101061.09;5074001;28;20525;-87
2022/12/11 01:15:29;;;;;;;64.22;21.63;;;;;;;0.62;100.00;101097.69;5073962;28;20036;-87
2022/12/11 01:17:55;;;;;;;69.82;22.20;;;;;;;0.47;100.00;101076.94;5074007;28;20090;-87
2022/12/11 01:20:22;;;;;;;64.50;22.80;;;;;;;0.61;100.00;101098.53;5055995;28;20040;-87
2022/12/11 01:22:51;;;;;;;59.85;20.73;;;;;;;0.50;100.00;101085.81;5055991;28;20033;-87
2022/12/11 01:25:17;;;;;;;74.75;22.50;;;;;;;0.64;100.00;101103.88;5055677;28;20024;-87
2022/12/11 01:27:42;;;;;;;65.07;20.88;;;;;;;0.67;100.00;101101.44;5039028;28;20121;-87
2022/12/11 01:30:08;;;;;;;61.60;21.00;;;;;;;0.68;100.00;101103.22;5039369;28;20071;-87
2022/12/11 01:32:34;;;;;;;60.42;20.27;;;;;;;0.53;100.00;101082.50;5022456;28;20039;-87
2022/12/11 01:35:03;;;;;;;64.25;22.48;;;;;;;0.66;100.00;101103.16;5055811;28;20071;-87
2022/12/11 01:37:29;;;;;;;61.63;21.88;;;;;;;0.70;100.00;101114.63;5073620;28;20028;-87
2022/12/11 01:39:55;;;;;;;57.35;20.55;;;;;;;0.56;100.00;101080.06;5055785;28;20068;-87
2022/12/11 01:42:20;;;;;;;63.50;21.80;;;;;;;0.60;100.00;101086.31;5038819;28;20602;-88
2022/12/11 01:44:45;;;;;;;56.28;19.73;;;;;;;0.70;100.00;101097.31;5039247;28;20032;-88
2022/12/11 01:47:11;;;;;;;60.25;22.08;;;;;;;0.67;100.00;101080.63;5073254;28;20040;-88
2022/12/11 01:49:38;;;;;;;57.83;20.65;;;;;;;0.56;100.00;101061.88;5038906;28;20067;-87
2022/12/11 01:52:20;;;;;;;53.47;19.67;;;;;;;0.72;100.00;101080.06;5073409;28;20063;-87
2022/12/11 01:54:47;;;;;;;52.22;20.15;;;;;;;0.79;100.00;101091.69;5055127;28;20029;-87
2022/12/11 01:57:14;;;;;;;52.53;19.27;;;;;;;0.82;100.00;101091.00;5055872;28;20038;-87
2022/12/11 01:59:45;;;;;;;56.35;19.23;;;;;;;0.82;100.00;101084.06;5073242;28;20036;-86
2022/12/11 02:02:26;;;;;;;53.63;18.92;;;;;;;0.74;100.00;101062.84;5055313;28;20028;-87
2022/12/11 02:04:52;;;;;;;50.97;19.27;;;;;;;0.77;100.00;101069.00;5055522;28;20067;-87
2022/12/11 02:07:17;;;;;;;57.80;21.10;;;;;;;0.70;100.00;101062.59;5072918;28;20029;-87
2022/12/11 02:09:45;;;;;;;50.00;18.48;;;;;;;0.72;100.00;101066.16;5055199;28;20024;-87
2022/12/11 02:12:25;;;;;;;48.83;18.48;;;;;;;0.90;100.00;101087.97;5055377;28;20021;-87
2022/12/11 02:15:25;;;;;;;48.13;18.70;;;;;;;0.87;100.00;101082.59;5055408;28;20140;-87
2022/12/11 02:17:56;;;;;;;50.30;19.23;;;;;;;0.88;100.00;101089.59;5056695;28;20043;-87
2022/12/11 02:20:28;;;;;;;49.38;19.05;;;;;;;0.87;100.00;101081.72;5059273;28;20124;-87
2022/12/11 02:23:06;;;;;;;50.83;19.37;;;;;;;0.90;100.00;101087.97;5058567;28;20032;-86
2022/12/11 02:25:45;;;;;;;51.38;18.48;;;;;;;0.86;100.00;101080.81;5077007;28;20270;-87
2022/12/11 02:28:26;;;;;;;51.13;19.23;;;;;;;0.87;100.00;101086.91;5065332;28;20139;-87
2022/12/11 02:31:21;;;;;;;51.17;21.30;;;;;;;0.80;100.00;101077.88;5059930;28;20472;-88
2022/12/11 02:34:01;;;;;;;47.17;20.10;;;;;;;0.75;100.00;101076.75;5039683;28;20041;-87
2022/12/11 02:36:32;;;;;;;44.35;17.67;;;;;;;0.64;100.00;101049.25;5059057;28;20487;-87
2022/12/11 02:39:00;;;;;;;48.17;18.80;;;;;;;0.58;100.00;101039.44;5058752;28;20028;-87
2022/12/11 02:41:27;;;;;;;44.90;18.70;;;;;;;0.75;100.00;101059.44;5058526;28;20059;-87
2022/12/11 02:43:56;;;;;;;51.10;19.42;;;;;;;0.81;100.00;101063.16;5042564;28;20467;-87
2022/12/11 02:46:24;;;;;;;44.47;17.42;;;;;;;0.57;100.00;101022.06;5058747;28;20036;-87
2022/12/11 02:48:51;;;;;;;41.88;17.05;;;;;;;0.82;100.00;101063.25;5058947;28;20032;-87
2022/12/11 02:51:22;;;;;;;44.05;17.33;;;;;;;0.82;100.00;101055.47;5042021;28;20041;-87
2022/12/11 02:53:50;;;;;;;43.30;18.52;;;;;;;0.76;100.00;101042.13;5058090;28;20120;-87
2022/12/11 02:56:23;;;;;;;45.58;17.42;;;;;;;0.86;100.00;101065.22;5058431;28;20082;-87
2022/12/11 02:58:54;;;;;;;48.28;18.42;;;;;;;0.85;100.00;101059.91;5058731;28;20345;-87
2022/12/11 03:01:19;;;;;;;44.33;16.38;;;;;;;0.95;100.00;101072.63;5059051;28;20039;-87
2022/12/11 03:03:45;;;;;;;33.10;14.35;;;;;;;0.96;100.00;101075.28;5041592;28;20029;-87
2022/12/11 03:06:14;;;;;;;44.35;16.92;;;;;;;0.81;100.00;101043.25;5058725;28;20037;-87
2022/12/11 03:08:40;;;;;;;42.22;16.73;;;;;;;0.91;100.00;101050.75;5058398;28;20032;-87
2022/12/11 03:11:10;;;;;;;40.47;16.35;;;;;;;0.83;100.00;101041.63;5058862;28;20039;-87
2022/12/11 03:13:36;;;;;;;33.45;16.30;;;;;;;0.93;99.80;101048.22;5058595;28;20028;-87
2022/12/11 03:16:38;;;;;;;32.30;15.20;;;;;;;0.88;99.54;101037.56;5076099;28;20366;-87
2022/12/11 03:19:12;;;;;;;32.30;14.10;;;;;;;0.89;99.14;101038.44;5058000;28;20391;-87
2022/12/11 03:22:02;;;;;;;32.08;14.48;;;;;;;1.03;99.08;101062.59;5076412;28;20043;-87
2022/12/11 03:24:40;;;;;;;28.42;13.82;;;;;;;0.93;98.76;101035.19;5076028;28;20081;-87
2022/12/11 03:27:17;;;;;;;29.90;13.77;;;;;;;1.02;98.36;101056.50;5057703;28;20048;-88
2022/12/11 03:30:03;;;;;;;28.10;13.10;;;;;;;0.86;98.07;101034.00;5057559;28;20029;-87
2022/12/11 03:32:37;;;;;;;29.98;13.85;;;;;;;0.65;98.21;101007.75;5058028;28;20033;-87
2022/12/11 03:35:10;;;;;;;27.52;13.70;;;;;;;0.81;98.49;101038.03;5075730;28;20032;-87
2022/12/11 03:37:39;;;;;;;27.10;13.52;;;;;;;0.86;98.31;101046.13;5057420;28;20040;-87
2022/12/11 03:40:16;;;;;;;27.92;12.40;;;;;;;0.88;97.40;101049.69;5057807;28;20066;-87
2022/12/11 03:42:44;;;;;;;28.48;12.35;;;;;;;0.87;97.81;101047.91;5057588;28;20545;-87
2022/12/11 03:45:14;;;;;;;27.67;11.98;;;;;;;0.84;97.83;101039.94;5057495;28;20025;-86
2022/12/11 03:47:41;;;;;;;23.17;11.30;;;;;;;0.80;97.75;101027.56;5075265;28;20028;-87
2022/12/11 03:50:09;;;;;;;24.77;12.30;;;;;;;0.79;97.45;101020.59;5042111;28;20043;-86
2022/12/11 03:52:38;;;;;;;23.98;11.77;;;;;;;0.94;97.20;101043.09;5079748;28;20472;-87
2022/12/11 03:55:06;;;;;;;23.20;11.55;;;;;;;0.95;96.73;101039.69;5075774;28;20035;-87
2022/12/11 03:57:36;;;;;;;23.25;10.73;;;;;;;0.95;96.30;101034.47;5057506;28;20032;-87
2022/12/11 04:00:05;;;;;;;23.95;11.63;;;;;;;0.99;96.62;101045.94;5057638;28;20086;-87
2022/12/11 04:02:30;;;;;;;20.50;10.35;;;;;;;0.89;96.96;101009.84;5075477;28;20063;-87
2022/12/11 04:04:56;;;;;;;23.88;11.45;;;;;;;1.05;96.07;101030.63;5040542;28;20421;-86
2022/12/11 04:07:21;;;;;;;21.40;11.25;;;;;;;0.87;96.27;100990.66;5057565;28;20507;-88
2022/12/11 04:09:46;;;;;;;19.50;10.40;;;;;;;0.90;95.35;100990.81;5057281;28;20028;-86
2022/12/11 04:12:19;;;;;;;21.50;11.32;;;;;;;1.03;94.72;101024.47;5075496;28;20365;-86
2022/12/11 04:15:03;;;;;;;23.15;12.80;;;;;;;0.92;94.64;101013.50;5057087;28;20029;-86
2022/12/11 04:25:46;;;;;;;20.90;10.88;;;;;;;0.92;94.23;101018.69;5074919;28;20032;-86
2022/12/11 04:28:11;;;;;;;23.90;11.35;;;;;;;0.99;94.45;101032.94;5040136;28;20052;-86
2022/12/11 04:30:36;;;;;;;23.45;11.27;;;;;;;0.93;94.50;101028.28;5056732;28;20514;-86
2022/12/11 04:33:02;;;;;;;22.52;11.90;;;;;;;0.97;95.26;101021.53;5074888;28;20037;-85
2022/12/11 04:35:28;;;;;;;21.80;11.18;;;;;;;1.02;95.33;101021.78;5056710;28;20033;-86
2022/12/11 04:37:53;;;;;;;22.30;10.30;;;;;;;1.06;95.25;101019.41;5074684;28;20043;-87
2022/12/11 04:40:19;;;;;;;21.88;11.50;;;;;;;1.00;94.79;100993.97;5056175;28;20036;-86
2022/12/11 04:42:48;;;;;;;24.65;11.90;;;;;;;0.99;93.68;101009.53;5056723;28;20039;-87
2022/12/11 04:45:16;;;;;;;21.35;10.90;;;;;;;0.99;94.41;101013.00;5056806;28;20040;-87
2022/12/11 04:47:41;;;;;;;18.45;10.50;;;;;;;1.03;94.77;101015.75;5040148;28;20166;-86
2022/12/11 04:50:09;;;;;;;21.02;10.60;;;;;;;0.90;94.66;100991.72;5039761;28;20064;-87
2022/12/11 04:52:35;;;;;;;20.58;11.10;;;;;;;0.97;94.46;100995.53;5056074;28;20036;-87
2022/12/11 04:55:00;;;;;;;23.13;10.85;;;;;;;1.05;94.50;101019.34;5074349;28;20499;-87
2022/12/11 04:57:25;;;;;;;23.17;11.32;;;;;;;1.04;94.82;101015.84;5056472;28;20025;-87
2022/12/11 04:59:51;;;;;;;23.42;11.88;;;;;;;1.11;94.76;101020.53;5056610;28;20081;-87
2022/12/11 05:02:16;;;;;;;24.23;11.95;;;;;;;1.10;94.46;101016.16;5039824;28;20476;-87
2022/12/11 05:04:42;;;;;;;23.63;11.63;;;;;;;1.06;94.47;101010.72;5056231;28;20028;-87
2022/12/11 05:07:08;;;;;;;23.30;11.80;;;;;;;1.00;94.56;101001.78;5056001;28;20032;-87
2022/12/11 05:09:34;;;;;;;23.33;12.07;;;;;;;0.98;94.89;100985.19;5056013;28;20131;-86
2022/12/11 05:12:03;;;;;;;23.98;12.15;;;;;;;0.96;94.20;100993.75;5073929;28;20476;-87
2022/12/11 05:14:30;;;;;;;21.77;12.43;;;;;;;0.85;94.19;100976.69;5082050;28;20076;-87
2022/12/11 05:16:57;;;;;;;23.83;11.43;;;;;;;0.99;93.96;101009.53;5074426;28;20067;-87
2022/12/11 05:19:23;;;;;;;25.73;12.77;;;;;;;0.86;94.03;100981.97;5055925;28;20040;-87
2022/12/11 05:21:48;;;;;;;21.63;12.25;;;;;;;0.93;93.73;101001.38;5055687;28;20025;-87
2022/12/11 05:24:14;;;;;;;27.10;12.98;;;;;;;1.02;94.33;101013.97;5073618;28;20025;-87
2022/12/11 05:26:39;;;;;;;25.25;13.15;;;;;;;0.98;94.11;101012.91;5039143;28;20384;-87
2022/12/11 05:29:04;;;;;;;20.45;11.50;;;;;;;0.86;94.53;100981.97;5055781;28;20025;-86
2022/12/11 05:31:31;;;;;;;23.15;12.02;;;;;;;1.07;94.70;101008.22;5055791;28;20044;-86
2022/12/11 05:33:56;;;;;;;24.13;12.07;;;;;;;0.77;93.99;100955.47;5055704;28;20543;-87
2022/12/11 05:36:26;;;;;;;25.48;13.15;;;;;;;0.96;94.31;100983.34;5073732;28;20515;-87
2022/12/11 05:38:52;;;;;;;23.48;11.85;;;;;;;0.90;93.85;100957.91;5073492;28;20024;-87
2022/12/11 05:41:20;;;;;;;25.42;12.38;;;;;;;1.07;93.45;100987.41;5055954;28;20040;-87
2022/12/11 05:43:46;;;;;;;24.92;12.73;;;;;;;0.92;93.40;100965.78;5055546;28;20031;-87
2022/12/11 05:46:15;;;;;;;28.75;13.65;;;;;;;0.87;93.54;100975.94;5055643;28;20392;-87
2022/12/11 05:48:41;;;;;;;25.83;13.68;;;;;;;0.89;92.43;100983.81;5055481;28;20074;-87
2022/12/11 05:51:08;;;;;;;26.52;12.70;;;;;;;0.84;92.67;100988.78;5073207;28;20475;-86
2022/12/11 05:53:35;;;;;;;27.10;12.98;;;;;;;0.69;93.27;100957.69;5055470;28;20050;-87
2022/12/11 05:56:06;;;;;;;26.40;13.05;;;;;;;0.93;92.77;101011.78;5055845;28;20060;-86
2022/12/11 05:58:33;;;;;;;23.60;12.57;;;;;;;0.91;92.75;101003.91;5054915;28;20028;-87
2022/12/11 06:00:59;;;;;;;23.25;11.85;;;;;;;0.93;93.33;100998.78;5055683;28;20083;-87
2022/12/11 06:03:24;;;;;;;22.30;11.80;;;;;;;0.80;93.01;100975.56;5055413;28;20475;-87
2022/12/11 06:05:50;;;;;;;25.63;12.40;;;;;;;1.08;93.00;101015.19;5038511;28;20039;-87
2022/12/11 06:08:15;;;;;;;22.80;11.63;;;;;;;0.95;93.08;100982.44;5073375;28;20029;-87
2022/12/11 06:10:45;;;;;;;19.80;11.55;;;;;;;1.05;91.67;101002.03;5038940;28;20112;-87
2022/12/11 06:13:11;;;;;;;22.95;11.02;;;;;;;1.03;91.52;101000.13;5039112;28;20384;-87
2022/12/11 06:15:36;;;;;;;21.75;11.45;;;;;;;0.90;91.42;100978.72;5038508;28;20090;-87
2022/12/11 06:18:02;;;;;;;25.45;12.23;;;;;;;1.00;91.62;100999.19;5055198;28;20034;-87
2022/12/11 06:20:30;;;;;;;20.48;10.77;;;;;;;1.08;91.35;101003.91;5054943;28;20543;-87
2022/12/11 06:22:56;;;;;;;19.13;10.18;;;;;;;1.12;91.65;101006.72;5073015;28;20024;-87
2022/12/11 06:25:21;;;;;;;19.08;10.43;;;;;;;1.17;91.95;101013.06;5073501;28;20566;-87
2022/12/11 06:27:47;;;;;;;21.80;11.43;;;;;;;1.07;91.21;100994.28;5055875;28;20169;-87
2022/12/11 06:30:12;;;;;;;20.50;11.18;;;;;;;1.02;91.41;100982.75;5055281;28;20067;-87
2022/12/11 06:32:38;;;;;;;20.73;10.77;;;;;;;1.09;91.24;100997.88;5055394;28;20495;-87
2022/12/11 06:35:03;;;;;;;21.35;10.82;;;;;;;1.17;91.71;100994.84;5022022;28;20036;-87
2022/12/11 06:37:29;;;;;;;22.80;11.30;;;;;;;1.11;91.36;100985.81;5061795;28;20041;-87
2022/12/11 06:39:54;;;;;;;18.60;9.93;;;;;;;1.25;91.38;101009.13;5055271;28;20451;-86
2022/12/11 06:42:20;;;;;;;19.38;10.65;;;;;;;1.21;91.10;100990.69;5054892;28;20029;-87
2022/12/11 06:44:45;;;;;;;19.83;11.10;;;;;;;1.25;90.84;100997.84;5038710;28;20040;-87
2022/12/11 06:47:14;;;;;;;19.88;10.25;;;;;;;1.18;91.04;100985.31;5055155;28;20115;-87
2022/12/11 06:49:39;;;;;;;21.73;11.65;;;;;;;1.29;90.78;100998.88;5055277;28;20048;-87
2022/12/11 06:52:05;;;;;;;21.17;10.57;;;;;;;1.23;91.18;100989.03;5055306;28;20036;-87
2022/12/11 06:54:30;;;;;;;21.63;11.25;;;;;;;1.28;91.12;100990.16;5072454;28;20032;-87
2022/12/11 06:56:56;;;;;;;20.52;11.32;;;;;;;1.33;90.47;101000.81;5072655;28;20037;-87
2022/12/11 06:59:21;;;;;;;21.00;11.10;;;;;;;1.20;90.33;100965.44;5038048;28;20121;-87
2022/12/11 07:01:47;;;;;;;21.42;11.38;;;;;;;1.16;90.26;100956.63;5054644;28;20047;-87
2022/12/11 07:04:12;;;;;;;21.27;10.75;;;;;;;1.33;90.20;100990.38;5056635;28;20029;-87
2022/12/11 07:06:40;;;;;;;18.38;10.65;;;;;;;1.33;90.64;100988.72;5058481;28;20458;-87
2022/12/11 07:09:05;;;;;;;20.20;11.05;;;;;;;1.36;90.15;100993.16;5058693;28;20476;-87
2022/12/11 07:11:39;;;;;;;21.33;11.70;;;;;;;1.33;89.84;100988.72;5058609;28;20036;-87
2022/12/11 07:14:05;;;;;;;20.50;11.45;;;;;;;1.21;89.45;100975.06;5058587;28;20452;-87
2022/12/11 07:16:30;;;;;;;23.10;11.73;;;;;;;1.33;89.37;101000.81;5076285;28;20058;-88
2022/12/11 07:18:58;;;;;;;20.42;11.43;;;;;;;1.33;89.83;101009.53;5057979;28;20037;-87
2022/12/11 07:21:24;;;;;;;21.48;11.60;;;;;;;1.24;89.89;100996.03;5057737;28;20486;-87
2022/12/11 07:23:50;;;;;;;21.95;11.48;;;;;;;1.22;90.22;100993.34;5057471;28;20033;-88
2022/12/11 07:26:18;;;;;;;21.52;11.20;;;;;;;1.33;89.43;101019.94;5075548;28;20025;-87
2022/12/11 07:28:44;;;;;;;22.67;10.70;;;;;;;1.32;89.52;101023.34;5057161;28;20059;-87
2022/12/11 07:31:18;;;;;;;22.33;11.48;;;;;;;1.21;89.21;101006.31;5057731;28;20041;-88
2022/12/11 07:33:43;;;;;;;24.67;11.35;;;;;;;1.34;89.56;101026.94;5057831;28;20033;-88
2022/12/11 07:36:11;;;;;;;20.02;10.95;;;;;;;1.24;89.53;101022.97;5075438;28;20510;-88
2022/12/11 07:38:37;;;;;;;21.25;11.35;;;;;;;1.26;89.07;101030.84;5075592;28;20059;-88
2022/12/11 07:41:04;;;;;;;21.73;12.10;;;;;;;1.10;89.51;101004.84;5040801;28;20068;-88
2022/12/11 07:43:31;;;;;;;21.73;11.95;;;;;;;1.12;89.49;101011.94;5057259;28;20424;-88
2022/12/11 07:46:05;;;;;;;20.45;11.48;;;;;;;1.14;88.79;101012.88;5057632;28;20086;-88
2022/12/11 07:48:31;;;;;;;19.75;11.75;;;;;;;1.22;88.40;101021.09;5075269;28;20361;-87
2022/12/11 07:51:10;;;;;;;20.13;11.35;;;;;;;1.09;88.83;101001.34;5057281;28;20066;-88
2022/12/11 07:53:36;;;;;;;23.08;11.48;;;;;;;1.11;88.56;101009.22;5057198;28;20460;-87
2022/12/11 07:56:01;;;;;;;22.55;11.27;;;;;;;1.10;88.77;101016.16;5075192;28;20107;-88
2022/12/11 07:58:26;;;;;;;23.73;11.25;;;;;;;1.11;88.84;101011.84;5040530;28;20427;-87
2022/12/11 08:00:52;;;;;;;23.88;12.20;;;;;;;1.08;89.85;100988.28;5084372;28;20055;-88
2022/12/11 08:03:20;;;;;;;23.38;12.35;;;;;;;1.10;88.71;100991.84;5041063;28;20487;-87
2022/12/11 08:05:48;;;;;;;22.20;12.38;;;;;;;1.06;89.01;100989.91;5057650;28;20043;-88
2022/12/11 08:08:14;;;;;;;23.15;12.30;;;;;;;1.12;88.63;100991.13;5057202;28;20437;-87
2022/12/11 08:10:39;;;;;;;26.10;12.82;;;;;;;1.12;88.75;100992.81;5075254;28;20050;-87
2022/12/11 08:13:05;;;;;;;25.25;12.60;;;;;;;1.27;89.22;101017.00;5057090;28;20119;-88
2022/12/11 08:15:33;;;;;;;25.27;13.05;;;;;;;1.03;88.94;100969.84;5057094;28;20063;-87
2022/12/11 08:18:01;;;;;;;23.92;12.07;;;;;;;1.03;88.80;100975.03;5074929;28;20032;-87
2022/12/11 08:20:26;;;;;;;28.00;12.63;;;;;;;1.22;89.37;101006.38;5074707;28;20028;-87
2022/12/11 08:22:52;;;;;;;26.90;13.48;;;;;;;1.18;88.95;101009.63;5074805;28;20111;-87
2022/12/11 08:25:17;;;;;;;25.50;12.98;;;;;;;1.17;88.98;101009.56;5074967;28;20040;-88
2022/12/11 08:27:43;;;;;;;29.88;14.25;;;;;;;1.26;89.26;101025.66;5074271;28;20048;-87
2022/12/11 08:30:09;;;;;;;25.70;13.90;;;;;;;1.13;88.74;100999.81;5057259;28;20060;-88
2022/12/11 08:32:34;;;;;;;25.48;13.75;;;;;;;1.10;89.49;100999.66;5057001;28;20025;-88
2022/12/11 08:35:00;;;;;;;27.02;13.15;;;;;;;1.10;89.22;101000.53;5056677;28;20090;-88
2022/12/11 08:37:26;;;;;;;24.75;13.48;;;;;;;1.12;89.05;100996.31;5040046;28;20040;-88
2022/12/11 08:39:51;;;;;;;29.02;14.55;;;;;;;1.09;89.86;100990.94;5057072;28;20491;-88
2022/12/11 08:42:17;;;;;;;29.45;13.50;;;;;;;1.23;89.18;101009.88;5057006;28;20068;-87
2022/12/11 08:44:42;;;;;;;25.00;12.25;;;;;;;1.08;89.75;100976.16;5056756;28;20024;-88
2022/12/11 08:47:10;;;;;;;25.33;13.40;;;;;;;1.06;89.33;100974.28;5074656;28;20040;-87
2022/12/11 08:49:36;;;;;;;26.98;12.98;;;;;;;1.20;88.98;100997.59;5056588;28;20086;-88
2022/12/11 08:52:03;;;;;;;23.80;11.90;;;;;;;1.20;88.90;100987.19;5057021;28;20038;-88
2022/12/11 08:54:28;;;;;;;22.02;11.32;;;;;;;1.36;89.80;101020.06;5056113;28;20028;-88
2022/12/11 08:56:54;;;;;;;28.15;13.18;;;;;;;1.32;88.73;100999.03;5039978;28;20032;-88
2022/12/11 08:59:19;;;;;;;24.05;12.05;;;;;;;1.39;88.72;101016.75;5040022;28;20452;-88
2022/12/11 09:01:45;;;;;;;25.02;13.35;;;;;;;1.29;89.10;101004.09;5056530;28;20033;-89
2022/12/11 09:04:10;;;;;;;26.20;12.70;;;;;;;1.22;89.36;100982.94;5039601;28;20032;-87
2022/12/11 09:06:38;;;;;;;27.20;12.93;;;;;;;1.37;88.95;101016.69;5055718;28;20059;-88
2022/12/11 09:09:06;;;;;;;23.85;12.25;;;;;;;1.28;89.02;100989.28;5073845;28;20040;-87
2022/12/11 09:11:42;;;;;;;25.75;12.32;;;;;;;1.40;88.51;101014.22;5073614;28;20028;-89
2022/12/11 09:14:08;;;;;;;27.55;13.80;;;;;;;1.37;88.73;101007.94;5057541;28;20059;-89
2022/12/11 09:16:36;;;;;;;26.60;12.80;;;;;;;1.17;88.68;100979.22;5075894;28;20040;-87
2022/12/11 09:19:02;;;;;;;25.55;11.55;;;;;;;1.22;88.92;100988.16;5058392;28;20119;-87
2022/12/11 09:21:29;;;;;;;26.02;12.05;;;;;;;0.99;89.26;100957.47;5058148;28;20443;-89
2022/12/11 09:23:57;;;;;;;25.25;12.02;;;;;;;1.01;88.81;100968.84;5085320;28;20061;-89
2022/12/11 09:26:24;;;;;;;24.50;11.95;;;;;;;0.98;89.35;100968.69;5056042;28;20037;-88
2022/12/11 09:28:52;;;;;;;23.08;13.02;;;;;;;1.03;89.32;100987.13;5073495;28;20059;-90
2022/12/11 09:31:29;;;;;;;24.85;12.75;;;;;;;1.00;89.66;100978.38;5056356;28;20039;-89
2022/12/11 09:33:57;;;;;;;23.95;12.13;;;;;;;1.17;90.03;101014.78;5055848;28;20046;-91
2022/12/11 09:36:23;;;;;;;26.33;11.77;;;;;;;1.08;89.79;100993.50;5055544;28;20125;-88
2022/12/11 09:38:50;;;;;;;22.35;11.43;;;;;;;1.05;89.17;100989.00;5074007;28;20444;-91
2022/12/11 09:41:21;;;;;;;26.40;12.07;;;;;;;1.18;90.07;101011.34;5073730;28;20401;-91
2022/12/11 09:44:19;;;;;;;24.73;12.60;;;;;;;1.17;90.01;101006.97;5073597;28;20024;-92
2022/12/11 09:46:45;;;;;;;25.80;12.18;;;;;;;1.18;90.34;100999.22;5047087;28;20502;-89
2022/12/11 09:49:42;;;;;;;25.48;13.45;;;;;;;1.26;89.93;101015.22;5055506;28;20082;-90
2022/12/11 09:52:22;;;;;;;26.00;12.65;;;;;;;1.25;89.83;101008.25;5055438;28;20055;-92
2022/12/11 09:54:58;;;;;;;26.23;12.93;;;;;;;1.26;89.54;101004.81;5055282;28;20234;-90
2022/12/11 09:57:27;;;;;;;26.92;13.48;;;;;;;1.24;89.77;101003.84;5055203;28;20392;-88
2022/12/11 10:00:11;;;;;;;28.65;13.40;;;;;;;1.20;89.94;101013.22;5055414;28;20028;-93
2022/12/11 10:02:39;;;;;;;27.88;13.85;;;;;;;1.21;90.03;101006.31;5055702;28;20040;-93
2022/12/11 10:05:22;;;;;;;27.23;13.70;;;;;;;1.19;89.68;100997.50;5055437;28;20062;-89
2022/12/11 10:08:16;;;;;;;24.90;12.57;;;;;;;1.17;89.89;100993.94;5054910;28;20472;-90
2022/12/11 10:10:59;;;;;;;23.23;12.52;;;;;;;1.06;89.90;100980.38;5055145;28;20062;-89
2022/12/11 10:13:53;;;;;;;26.13;12.80;;;;;;;1.19;89.69;101000.09;5055340;28;20028;-90
2022/12/11 10:16:34;;;;;;;27.92;12.38;;;;;;;1.04;89.86;100981.13;5073669;28;20530;-91
2022/12/11 10:19:00;;;;;;;28.35;12.57;;;;;;;1.08;89.52;100980.47;5055541;28;20028;-91
2022/12/11 10:21:28;;;;;;;25.88;12.75;;;;;;;1.17;88.85;100994.84;5056093;28;20384;-90
2022/12/11 10:24:00;;;;;;;26.80;12.85;;;;;;;1.23;89.60;100989.94;5055524;28;20039;-90
2022/12/11 10:26:28;;;;;;;28.27;12.13;;;;;;;1.27;89.99;100982.28;5055171;28;20081;-91
2022/12/11 10:29:02;;;;;;;25.02;11.98;;;;;;;1.20;89.93;100968.97;5051744;28;20194;-93
2022/12/11 10:31:54;;;;;;;27.75;13.38;;;;;;;1.17;89.20;100987.03;5052699;28;20099;-91
2022/12/11 10:34:30;;;;;;;25.92;13.10;;;;;;;1.21;89.67;100996.78;5054564;28;20036;-92
2022/12/11 10:36:58;;;;;;;28.38;12.55;;;;;;;1.22;89.08;100989.88;5053242;28;20033;-94
2022/12/11 10:39:23;;;;;;;25.80;12.40;;;;;;;1.20;89.27;100997.59;5056774;28;20388;-93
2022/12/11 10:41:51;;;;;;;27.80;12.30;;;;;;;1.11;89.46;100978.00;5057340;28;20029;-94
2022/12/11 10:44:30;;;;;;;26.08;13.50;;;;;;;1.18;89.68;100983.59;5059537;28;20025;-90
2022/12/11 10:47:13;;;;;;;27.10;12.77;;;;;;;1.22;89.69;100992.47;5075080;28;20029;-93
2022/12/11 10:49:50;;;;;;;24.85;12.23;;;;;;;1.16;89.87;100961.84;5057833;28;20052;-95
2022/12/11 10:52:22;;;;;;;25.67;12.18;;;;;;;1.15;89.62;100965.22;5058126;28;20041;-94
2022/12/11 10:54:57;;;;;;;25.90;12.52;;;;;;;1.22;89.63;100979.44;5059609;28;20044;-94
2022/12/11 10:57:31;;;;;;;24.88;12.27;;;;;;;1.28;89.65;100979.75;5058677;28;20381;-93
2022/12/11 10:59:58;;;;;;;23.75;11.60;;;;;;;1.24;89.76;100959.59;5056373;28;20120;-95
2022/12/11 11:02:30;;;;;;;21.63;11.93;;;;;;;1.33;89.17;100978.28;5058618;28;20037;-93
2022/12/11 11:04:57;;;;;;;26.75;14.18;;;;;;;1.21;88.89;100959.47;5057117;28;20106;-94
2022/12/11 11:07:26;;;;;;;27.02;12.27;;;;;;;1.28;89.52;100964.13;5058914;28;20029;-95
2022/12/11 11:10:05;;;;;;;25.60;11.88;;;;;;;1.22;88.93;100953.44;5057085;28;20033;-92
2022/12/11 11:12:40;;;;;;;23.08;11.55;;;;;;;1.25;88.51;100961.41;5059349;28;20091;-94
2022/12/11 11:15:12;;;;;;;25.20;11.93;;;;;;;1.20;88.63;100960.25;5058187;28;20033;-92
2022/12/11 11:17:50;;;;;;;24.58;11.00;;;;;;;1.22;88.86;100966.44;5058045;28;20131;-93
2022/12/11 11:20:19;;;;;;;25.00;12.57;;;;;;;1.27;88.82;100959.75;5057185;28;20087;-90
2022/12/11 11:23:00;;;;;;;18.50;10.50;;;;;;;1.23;89.06;100965.63;5055800;28;20067;-93
2022/12/11 11:25:28;;;;;;;23.17;12.05;;;;;;;1.13;88.80;100947.75;5057592;28;20029;-91
2022/12/11 11:27:57;;;;;;;26.58;13.15;;;;;;;1.19;89.19;100956.75;5054797;28;20049;-92
2022/12/11 11:30:28;;;;;;;26.17;11.52;;;;;;;1.21;89.79;100951.66;5055144;28;20036;-88
2022/12/11 11:32:59;;;;;;;24.88;12.48;;;;;;;1.20;89.53;100953.38;5054758;28;20448;-84